sensor_id;sensor_type;location;lat;lon;timestamp;pressure;altitude;pressure_sealevel;temperature;humidity
60897;BME280;46749;32.932;-117.130;2022-07-18T00:00:47;100645.81;;;19.64;58.95
60897;BME280;46749;32.932;-117.130;2022-07-18T00:03:14;100645.81;;;19.63;59.38
60897;BME280;46749;32.932;-117.130;2022-07-18T00:05:40;100643.16;;;19.60;59.44
60897;BME280;46749;32.932;-117.130;2022-07-18T00:08:06;100640.53;;;19.58;59.46
60897;BME280;46749;32.932;-117.130;2022-07-18T00:10:32;100637.88;;;19.57;59.01
60897;BME280;46749;32.932;-117.130;2022-07-18T00:12:58;100637.00;;;19.56;59.54
60897;BME280;46749;32.932;-117.130;2022-07-18T00:15:24;100641.41;;;19.60;59.02
60897;BME280;46749;32.932;-117.130;2022-07-18T00:17:50;100650.19;;;19.65;59.17
60897;BME280;46749;32.932;-117.130;2022-07-18T00:20:17;100648.44;;;19.64;58.94
60897;BME280;46749;32.932;-117.130;2022-07-18T00:22:43;100652.84;;;19.64;59.20
60897;BME280;46749;32.932;-117.130;2022-07-18T00:25:09;100637.03;;;19.62;59.02
60897;BME280;46749;32.932;-117.130;2022-07-18T00:27:35;100633.50;;;19.60;59.27
60897;BME280;46749;32.932;-117.130;2022-07-18T00:30:02;100637.91;;;19.58;59.21
60897;BME280;46749;32.932;-117.130;2022-07-18T00:32:28;100637.03;;;19.58;59.00
60897;BME280;46749;32.932;-117.130;2022-07-18T00:34:55;100627.34;;;19.57;59.08
60897;BME280;46749;32.932;-117.130;2022-07-18T00:37:21;100620.34;;;19.56;59.32
60897;BME280;46749;32.932;-117.130;2022-07-18T00:39:47;100619.47;;;19.55;59.58
60897;BME280;46749;32.932;-117.130;2022-07-18T00:42:13;100608.91;;;19.55;59.52
60897;BME280;46749;32.932;-117.130;2022-07-18T00:44:39;100612.41;;;19.54;59.12
60897;BME280;46749;32.932;-117.130;2022-07-18T00:47:05;100607.16;;;19.57;59.55
60897;BME280;46749;32.932;-117.130;2022-07-18T00:49:32;100608.03;;;19.61;59.22
60897;BME280;46749;32.932;-117.130;2022-07-18T00:51:58;100611.56;;;19.61;59.25
60897;BME280;46749;32.932;-117.130;2022-07-18T00:54:24;100620.34;;;19.60;59.17
60897;BME280;46749;32.932;-117.130;2022-07-18T00:56:51;100622.09;;;19.67;59.20
60897;BME280;46749;32.932;-117.130;2022-07-18T00:59:18;100616.81;;;19.69;59.11
60897;BME280;46749;32.932;-117.130;2022-07-18T01:01:45;100613.28;;;19.67;59.31
60897;BME280;46749;32.932;-117.130;2022-07-18T01:04:19;100611.56;;;19.64;59.50
60897;BME280;46749;32.932;-117.130;2022-07-18T01:06:46;100617.72;;;19.63;59.36
60897;BME280;46749;32.932;-117.130;2022-07-18T01:09:14;100612.44;;;19.62;59.18
60897;BME280;46749;32.932;-117.130;2022-07-18T01:11:40;100612.44;;;19.60;59.09
60897;BME280;46749;32.932;-117.130;2022-07-18T01:14:07;100613.31;;;19.59;59.07
60897;BME280;46749;32.932;-117.130;2022-07-18T01:16:34;100616.81;;;19.60;59.47
60897;BME280;46749;32.932;-117.130;2022-07-18T01:19:00;100613.31;;;19.64;59.30
60897;BME280;46749;32.932;-117.130;2022-07-18T01:21:27;100616.84;;;19.63;59.43
60897;BME280;46749;32.932;-117.130;2022-07-18T01:23:53;100617.72;;;19.63;59.11
60897;BME280;46749;32.932;-117.130;2022-07-18T01:26:23;100611.56;;;19.61;59.43
60897;BME280;46749;32.932;-117.130;2022-07-18T01:28:49;100615.94;;;19.61;59.21
60897;BME280;46749;32.932;-117.130;2022-07-18T01:31:15;100615.06;;;19.59;59.46
60897;BME280;46749;32.932;-117.130;2022-07-18T01:33:41;100613.31;;;19.59;59.11
60897;BME280;46749;32.932;-117.130;2022-07-18T01:36:08;100617.72;;;19.59;59.58
60897;BME280;46749;32.932;-117.130;2022-07-18T01:38:35;100615.94;;;19.59;59.47
60897;BME280;46749;32.932;-117.130;2022-07-18T01:41:01;100619.47;;;19.58;59.48
60897;BME280;46749;32.932;-117.130;2022-07-18T01:43:28;100615.06;;;19.57;59.38
60897;BME280;46749;32.932;-117.130;2022-07-18T01:45:54;100617.69;;;19.57;59.53
60897;BME280;46749;32.932;-117.130;2022-07-18T01:48:21;100616.81;;;19.64;59.13
60897;BME280;46749;32.932;-117.130;2022-07-18T01:50:51;100608.03;;;19.64;59.53
60897;BME280;46749;32.932;-117.130;2022-07-18T01:53:17;100611.56;;;19.64;59.00
60897;BME280;46749;32.932;-117.130;2022-07-18T01:55:43;100612.41;;;19.66;59.60
60897;BME280;46749;32.932;-117.130;2022-07-18T01:58:10;100610.66;;;19.70;59.10
60897;BME280;46749;32.932;-117.130;2022-07-18T02:00:36;100608.91;;;19.71;59.24
60897;BME280;46749;32.932;-117.130;2022-07-18T02:03:02;100618.59;;;19.69;59.06
60897;BME280;46749;32.932;-117.130;2022-07-18T02:05:28;100617.69;;;19.66;58.92
60897;BME280;46749;32.932;-117.130;2022-07-18T02:07:54;100615.94;;;19.65;59.13
60897;BME280;46749;32.932;-117.130;2022-07-18T02:10:21;100614.19;;;19.64;59.29
60897;BME280;46749;32.932;-117.130;2022-07-18T02:12:48;100615.97;;;19.62;59.02
60897;BME280;46749;32.932;-117.130;2022-07-18T02:15:15;100614.22;;;19.61;58.90
60897;BME280;46749;32.932;-117.130;2022-07-18T02:17:43;100615.06;;;19.66;59.60
60897;BME280;46749;32.932;-117.130;2022-07-18T02:20:11;100615.94;;;19.69;59.13
60897;BME280;46749;32.932;-117.130;2022-07-18T02:22:38;100626.47;;;19.67;59.30
60897;BME280;46749;32.932;-117.130;2022-07-18T02:25:05;100622.09;;;19.64;59.18
60897;BME280;46749;32.932;-117.130;2022-07-18T02:27:32;100623.84;;;19.64;59.16
60897;BME280;46749;32.932;-117.130;2022-07-18T02:29:58;100621.22;;;19.62;59.02
60897;BME280;46749;32.932;-117.130;2022-07-18T02:32:24;100629.13;;;19.62;59.30
60897;BME280;46749;32.932;-117.130;2022-07-18T02:34:50;100623.84;;;19.61;59.46
60897;BME280;46749;32.932;-117.130;2022-07-18T02:37:17;100622.97;;;19.60;59.36
60897;BME280;46749;32.932;-117.130;2022-07-18T02:39:43;100625.59;;;19.60;59.00
60897;BME280;46749;32.932;-117.130;2022-07-18T02:42:09;100618.59;;;19.59;59.12
60897;BME280;46749;32.932;-117.130;2022-07-18T02:44:35;100623.84;;;19.59;59.40
60897;BME280;46749;32.932;-117.130;2022-07-18T02:47:02;100625.63;;;19.62;59.27
60897;BME280;46749;32.932;-117.130;2022-07-18T02:49:29;100622.97;;;19.65;59.31
60897;BME280;46749;32.932;-117.130;2022-07-18T02:52:00;100622.97;;;19.65;59.28
60897;BME280;46749;32.932;-117.130;2022-07-18T02:54:28;100620.34;;;19.63;59.30
60897;BME280;46749;32.932;-117.130;2022-07-18T02:56:54;100620.31;;;19.70;59.05
60897;BME280;46749;32.932;-117.130;2022-07-18T02:59:20;100623.81;;;19.73;58.77
60897;BME280;46749;32.932;-117.130;2022-07-18T03:01:47;100621.19;;;19.72;58.96
60897;BME280;46749;32.932;-117.130;2022-07-18T03:04:15;100630.00;;;19.69;58.91
60897;BME280;46749;32.932;-117.130;2022-07-18T03:06:41;100622.94;;;19.66;59.02
60897;BME280;46749;32.932;-117.130;2022-07-18T03:09:07;100631.75;;;19.65;58.88
60897;BME280;46749;32.932;-117.130;2022-07-18T03:11:33;100632.66;;;19.63;59.02
60897;BME280;46749;32.932;-117.130;2022-07-18T03:14:00;100637.03;;;19.62;59.33
60897;BME280;46749;32.932;-117.130;2022-07-18T03:16:46;100634.38;;;19.64;59.18
60897;BME280;46749;32.932;-117.130;2022-07-18T03:19:12;100629.09;;;19.65;59.36
60897;BME280;46749;32.932;-117.130;2022-07-18T03:21:38;100634.38;;;19.65;58.85
60897;BME280;46749;32.932;-117.130;2022-07-18T03:24:04;100631.75;;;19.65;59.23
60897;BME280;46749;32.932;-117.130;2022-07-18T03:26:31;100634.38;;;19.64;59.04
60897;BME280;46749;32.932;-117.130;2022-07-18T03:28:57;100642.31;;;19.62;58.95
60897;BME280;46749;32.932;-117.130;2022-07-18T03:31:23;100640.56;;;19.61;58.93
60897;BME280;46749;32.932;-117.130;2022-07-18T03:33:49;100640.56;;;19.61;59.30
60897;BME280;46749;32.932;-117.130;2022-07-18T03:36:15;100640.53;;;19.60;59.04
60897;BME280;46749;32.932;-117.130;2022-07-18T03:38:41;100644.94;;;19.59;59.04
60897;BME280;46749;32.932;-117.130;2022-07-18T03:41:10;100639.66;;;19.58;59.32
60897;BME280;46749;32.932;-117.130;2022-07-18T03:43:40;100643.19;;;19.58;59.44
60897;BME280;46749;32.932;-117.130;2022-07-18T03:46:07;100639.66;;;19.58;59.19
60897;BME280;46749;32.932;-117.130;2022-07-18T03:48:34;100635.28;;;19.63;59.36
60897;BME280;46749;32.932;-117.130;2022-07-18T03:51:01;100633.50;;;19.65;59.03
60897;BME280;46749;32.932;-117.130;2022-07-18T03:53:28;100628.25;;;19.63;58.76
60897;BME280;46749;32.932;-117.130;2022-07-18T03:55:54;100638.78;;;19.63;59.33
60897;BME280;46749;32.932;-117.130;2022-07-18T03:58:20;100638.78;;;19.70;58.74
60897;BME280;46749;32.932;-117.130;2022-07-18T04:00:46;100639.66;;;19.69;58.81
60897;BME280;46749;32.932;-117.130;2022-07-18T04:03:12;100638.75;;;19.66;59.08
60897;BME280;46749;32.932;-117.130;2022-07-18T04:05:38;100644.94;;;19.64;59.12
60897;BME280;46749;32.932;-117.130;2022-07-18T04:08:05;100637.91;;;19.63;58.91
60897;BME280;46749;32.932;-117.130;2022-07-18T04:10:31;100648.47;;;19.61;59.01
60897;BME280;46749;32.932;-117.130;2022-07-18T04:12:57;100643.16;;;19.60;59.13
60897;BME280;46749;32.932;-117.130;2022-07-18T04:15:43;100646.69;;;19.59;58.95
60897;BME280;46749;32.932;-117.130;2022-07-18T04:18:09;100647.56;;;19.64;58.80
60897;BME280;46749;32.932;-117.130;2022-07-18T04:20:37;100645.81;;;19.64;58.84
60897;BME280;46749;32.932;-117.130;2022-07-18T04:23:06;100653.72;;;19.63;59.06
60897;BME280;46749;32.932;-117.130;2022-07-18T04:25:35;100662.50;;;19.60;58.81
60897;BME280;46749;32.932;-117.130;2022-07-18T04:28:02;100671.28;;;19.59;59.27
60897;BME280;46749;32.932;-117.130;2022-07-18T04:30:29;100669.53;;;19.58;59.22
60897;BME280;46749;32.932;-117.130;2022-07-18T04:32:55;100660.72;;;19.56;59.08
60897;BME280;46749;32.932;-117.130;2022-07-18T04:35:23;100663.34;;;19.56;58.85
60897;BME280;46749;32.932;-117.130;2022-07-18T04:37:50;100666.88;;;19.55;59.27
60897;BME280;46749;32.932;-117.130;2022-07-18T04:40:17;100661.59;;;19.55;59.35
60897;BME280;46749;32.932;-117.130;2022-07-18T04:42:43;100671.28;;;19.64;58.85
60897;BME280;46749;32.932;-117.130;2022-07-18T04:45:10;100678.28;;;19.66;58.93
60897;BME280;46749;32.932;-117.130;2022-07-18T04:47:36;100673.91;;;19.69;58.64
60897;BME280;46749;32.932;-117.130;2022-07-18T04:50:04;100679.19;;;19.69;58.45
60897;BME280;46749;32.932;-117.130;2022-07-18T04:52:38;100678.28;;;19.66;58.72
60897;BME280;46749;32.932;-117.130;2022-07-18T04:55:07;100671.28;;;19.64;58.63
60897;BME280;46749;32.932;-117.130;2022-07-18T04:57:33;100687.97;;;19.67;58.55
60897;BME280;46749;32.932;-117.130;2022-07-18T05:00:02;100690.59;;;19.69;58.71
60897;BME280;46749;32.932;-117.130;2022-07-18T05:02:28;100694.09;;;19.71;58.56
60897;BME280;46749;32.932;-117.130;2022-07-18T05:04:54;100700.25;;;19.72;58.81
60897;BME280;46749;32.932;-117.130;2022-07-18T05:07:21;100707.28;;;19.70;58.45
60897;BME280;46749;32.932;-117.130;2022-07-18T05:09:47;100711.66;;;19.66;58.61
60897;BME280;46749;32.932;-117.130;2022-07-18T05:12:13;100723.09;;;19.63;58.54
60897;BME280;46749;32.932;-117.130;2022-07-18T05:14:39;100723.97;;;19.61;58.75
60897;BME280;46749;32.932;-117.130;2022-07-18T05:17:05;100735.41;;;19.61;58.86
60897;BME280;46749;32.932;-117.130;2022-07-18T05:19:31;100734.53;;;19.62;58.53
60897;BME280;46749;32.932;-117.130;2022-07-18T05:21:57;100731.84;;;19.61;58.41
60897;BME280;46749;32.932;-117.130;2022-07-18T05:24:23;100731.88;;;19.59;58.61
60897;BME280;46749;32.932;-117.130;2022-07-18T05:26:49;100734.50;;;19.58;58.91
60897;BME280;46749;32.932;-117.130;2022-07-18T05:29:16;100731.84;;;19.56;58.73
60897;BME280;46749;32.932;-117.130;2022-07-18T05:31:42;100724.81;;;19.54;58.84
60897;BME280;46749;32.932;-117.130;2022-07-18T05:34:08;100732.72;;;19.54;58.92
60897;BME280;46749;32.932;-117.130;2022-07-18T05:36:34;100730.97;;;19.53;59.06
60897;BME280;46749;32.932;-117.130;2022-07-18T05:39:01;100722.19;;;19.51;58.93
60897;BME280;46749;32.932;-117.130;2022-07-18T05:41:28;100721.31;;;19.50;58.82
60897;BME280;46749;32.932;-117.130;2022-07-18T05:43:54;100731.88;;;19.49;58.99
60897;BME280;46749;32.932;-117.130;2022-07-18T05:46:20;100729.22;;;19.49;58.85
60897;BME280;46749;32.932;-117.130;2022-07-18T05:48:46;100730.97;;;19.57;58.69
60897;BME280;46749;32.932;-117.130;2022-07-18T05:51:13;100731.00;;;19.59;58.53
60897;BME280;46749;32.932;-117.130;2022-07-18T05:53:39;100745.06;;;19.58;58.48
60897;BME280;46749;32.932;-117.130;2022-07-18T05:56:05;100738.88;;;19.56;58.50
60897;BME280;46749;32.932;-117.130;2022-07-18T05:58:32;100736.25;;;19.60;58.39
60897;BME280;46749;32.932;-117.130;2022-07-18T06:00:58;100738.88;;;19.60;58.62
60897;BME280;46749;32.932;-117.130;2022-07-18T06:03:24;100739.78;;;19.58;58.34
60897;BME280;46749;32.932;-117.130;2022-07-18T06:05:50;100745.03;;;19.55;58.68
60897;BME280;46749;32.932;-117.130;2022-07-18T06:08:16;100745.00;;;19.53;58.65
60897;BME280;46749;32.932;-117.130;2022-07-18T06:10:43;100752.94;;;19.50;58.92
60897;BME280;46749;32.932;-117.130;2022-07-18T06:13:09;100748.53;;;19.49;58.79
60897;BME280;46749;32.932;-117.130;2022-07-18T06:15:35;100754.66;;;19.48;58.42
60897;BME280;46749;32.932;-117.130;2022-07-18T06:18:01;100747.66;;;19.53;58.48
60897;BME280;46749;32.932;-117.130;2022-07-18T06:20:27;100746.78;;;19.51;58.76
60897;BME280;46749;32.932;-117.130;2022-07-18T06:22:53;100743.25;;;19.51;58.76
60897;BME280;46749;32.932;-117.130;2022-07-18T06:25:19;100751.19;;;19.49;58.73
60897;BME280;46749;32.932;-117.130;2022-07-18T06:27:45;100753.78;;;19.46;58.36
60897;BME280;46749;32.932;-117.130;2022-07-18T06:30:12;100742.38;;;19.44;58.54
60897;BME280;46749;32.932;-117.130;2022-07-18T06:32:39;100751.16;;;19.43;58.67
60897;BME280;46749;32.932;-117.130;2022-07-18T06:35:06;100750.28;;;19.43;58.75
60897;BME280;46749;32.932;-117.130;2022-07-18T06:37:33;100749.38;;;19.42;58.55
60897;BME280;46749;32.932;-117.130;2022-07-18T06:39:59;100752.03;;;19.40;58.52
60897;BME280;46749;32.932;-117.130;2022-07-18T06:42:25;100753.78;;;19.40;59.02
60897;BME280;46749;32.932;-117.130;2022-07-18T06:44:51;100745.88;;;19.40;58.74
60897;BME280;46749;32.932;-117.130;2022-07-18T06:47:17;100750.28;;;19.43;58.56
60897;BME280;46749;32.932;-117.130;2022-07-18T06:49:43;100753.78;;;19.46;58.60
60897;BME280;46749;32.932;-117.130;2022-07-18T06:52:09;100745.91;;;19.43;58.69
60897;BME280;46749;32.932;-117.130;2022-07-18T06:54:38;100745.91;;;19.43;58.87
60897;BME280;46749;32.932;-117.130;2022-07-18T06:57:07;100748.53;;;19.45;58.77
60897;BME280;46749;32.932;-117.130;2022-07-18T06:59:35;100758.19;;;19.50;58.71
60897;BME280;46749;32.932;-117.130;2022-07-18T07:02:02;100755.56;;;19.49;58.10
60897;BME280;46749;32.932;-117.130;2022-07-18T07:04:28;100756.44;;;19.46;58.69
60897;BME280;46749;32.932;-117.130;2022-07-18T07:06:54;100759.06;;;19.45;58.31
60897;BME280;46749;32.932;-117.130;2022-07-18T07:09:20;100758.19;;;19.43;58.71
60897;BME280;46749;32.932;-117.130;2022-07-18T07:11:46;100752.03;;;19.40;58.33
60897;BME280;46749;32.932;-117.130;2022-07-18T07:14:12;100759.06;;;19.37;58.43
60897;BME280;46749;32.932;-117.130;2022-07-18T07:16:38;100757.31;;;19.39;58.89
60897;BME280;46749;32.932;-117.130;2022-07-18T07:19:05;100759.06;;;19.40;58.61
60897;BME280;46749;32.932;-117.130;2022-07-18T07:21:31;100770.47;;;19.42;58.75
60897;BME280;46749;32.932;-117.130;2022-07-18T07:23:57;100756.44;;;19.37;58.72
60897;BME280;46749;32.932;-117.130;2022-07-18T07:26:23;100762.59;;;19.36;58.54
60897;BME280;46749;32.932;-117.130;2022-07-18T07:28:49;100759.94;;;19.34;58.59
60897;BME280;46749;32.932;-117.130;2022-07-18T07:31:15;100763.44;;;19.33;58.62
60897;BME280;46749;32.932;-117.130;2022-07-18T07:33:41;100765.19;;;19.33;58.77
60897;BME280;46749;32.932;-117.130;2022-07-18T07:36:10;100759.06;;;19.31;58.44
60897;BME280;46749;32.932;-117.130;2022-07-18T07:38:36;100759.94;;;19.30;58.65
60897;BME280;46749;32.932;-117.130;2022-07-18T07:41:03;100754.69;;;19.30;58.90
60897;BME280;46749;32.932;-117.130;2022-07-18T07:43:29;100749.41;;;19.30;58.98
60897;BME280;46749;32.932;-117.130;2022-07-18T07:45:55;100747.63;;;19.29;58.74
60897;BME280;46749;32.932;-117.130;2022-07-18T07:48:22;100750.28;;;19.33;58.65
60897;BME280;46749;32.932;-117.130;2022-07-18T07:50:49;100751.16;;;19.34;58.83
60897;BME280;46749;32.932;-117.130;2022-07-18T07:53:16;100750.28;;;19.32;58.65
60897;BME280;46749;32.932;-117.130;2022-07-18T07:55:43;100758.19;;;19.30;58.33
60897;BME280;46749;32.932;-117.130;2022-07-18T07:58:09;100755.53;;;19.35;58.88
60897;BME280;46749;32.932;-117.130;2022-07-18T08:00:35;100752.91;;;19.35;58.23
60897;BME280;46749;32.932;-117.130;2022-07-18T08:03:04;100760.81;;;19.35;58.74
60897;BME280;46749;32.932;-117.130;2022-07-18T08:05:36;100758.19;;;19.32;58.67
60897;BME280;46749;32.932;-117.130;2022-07-18T08:08:03;100753.78;;;19.31;58.66
60897;BME280;46749;32.932;-117.130;2022-07-18T08:10:30;100758.16;;;19.29;58.77
60897;BME280;46749;32.932;-117.130;2022-07-18T08:12:57;100761.69;;;19.28;58.72
60897;BME280;46749;32.932;-117.130;2022-07-18T08:15:24;100755.53;;;19.26;58.71
60897;BME280;46749;32.932;-117.130;2022-07-18T08:17:50;100760.78;;;19.29;58.41
60897;BME280;46749;32.932;-117.130;2022-07-18T08:20:16;100758.19;;;19.30;58.65
60897;BME280;46749;32.932;-117.130;2022-07-18T08:23:03;100760.78;;;19.29;58.38
60897;BME280;46749;32.932;-117.130;2022-07-18T08:25:31;100766.06;;;19.27;58.21
60897;BME280;46749;32.932;-117.130;2022-07-18T08:27:59;100758.16;;;19.26;58.49
60897;BME280;46749;32.932;-117.130;2022-07-18T08:30:26;100755.53;;;19.24;58.25
60897;BME280;46749;32.932;-117.130;2022-07-18T08:32:52;100765.19;;;19.22;58.32
60897;BME280;46749;32.932;-117.130;2022-07-18T08:35:19;100761.66;;;19.22;58.50
60897;BME280;46749;32.932;-117.130;2022-07-18T08:37:45;100761.66;;;19.22;58.68
60897;BME280;46749;32.932;-117.130;2022-07-18T08:40:12;100758.16;;;19.20;58.75
60897;BME280;46749;32.932;-117.130;2022-07-18T08:42:38;100763.44;;;19.20;58.64
60897;BME280;46749;32.932;-117.130;2022-07-18T08:45:06;100766.06;;;19.20;58.62
60897;BME280;46749;32.932;-117.130;2022-07-18T08:47:32;100767.81;;;19.22;58.43
60897;BME280;46749;32.932;-117.130;2022-07-18T08:49:59;100759.94;;;19.24;58.48
60897;BME280;46749;32.932;-117.130;2022-07-18T08:52:28;100775.72;;;19.24;58.56
60897;BME280;46749;32.932;-117.130;2022-07-18T08:54:57;100768.69;;;19.21;58.43
60897;BME280;46749;32.932;-117.130;2022-07-18T08:57:24;100776.59;;;19.23;58.60
60897;BME280;46749;32.932;-117.130;2022-07-18T08:59:50;100780.13;;;19.26;58.50
60897;BME280;46749;32.932;-117.130;2022-07-18T09:02:16;100792.41;;;19.26;58.31
60897;BME280;46749;32.932;-117.130;2022-07-18T09:04:44;100786.25;;;19.24;58.19
60897;BME280;46749;32.932;-117.130;2022-07-18T09:07:26;100792.38;;;19.21;58.30
60897;BME280;46749;32.932;-117.130;2022-07-18T09:09:58;100790.63;;;19.19;58.49
60897;BME280;46749;32.932;-117.130;2022-07-18T09:12:26;100791.53;;;19.18;58.47
60897;BME280;46749;32.932;-117.130;2022-07-18T09:14:53;100795.00;;;19.17;58.24
60897;BME280;46749;32.932;-117.130;2022-07-18T09:17:23;100798.53;;;19.19;58.27
60897;BME280;46749;32.932;-117.130;2022-07-18T09:20:15;100795.03;;;19.20;58.17
60897;BME280;46749;32.932;-117.130;2022-07-18T09:22:44;100795.03;;;19.18;58.33
60897;BME280;46749;32.932;-117.130;2022-07-18T09:25:17;100800.25;;;19.17;58.43
60897;BME280;46749;32.932;-117.130;2022-07-18T09:27:51;100800.28;;;19.15;58.18
60897;BME280;46749;32.932;-117.130;2022-07-18T09:30:30;100804.66;;;19.13;58.59
60897;BME280;46749;32.932;-117.130;2022-07-18T09:33:05;100809.94;;;19.11;58.42
60897;BME280;46749;32.932;-117.130;2022-07-18T09:35:49;100810.78;;;19.10;58.20
60897;BME280;46749;32.932;-117.130;2022-07-18T09:38:18;100815.16;;;19.10;58.51
60897;BME280;46749;32.932;-117.130;2022-07-18T09:40:53;100819.56;;;19.09;58.67
60897;BME280;46749;32.932;-117.130;2022-07-18T09:43:25;100813.41;;;19.07;58.70
60897;BME280;46749;32.932;-117.130;2022-07-18T09:45:56;100815.16;;;19.07;58.73
60897;BME280;46749;32.932;-117.130;2022-07-18T09:48:23;100812.56;;;19.11;58.63
60897;BME280;46749;32.932;-117.130;2022-07-18T09:50:52;100812.56;;;19.11;58.59
60897;BME280;46749;32.932;-117.130;2022-07-18T09:53:20;100815.19;;;19.11;58.32
60897;BME280;46749;32.932;-117.130;2022-07-18T09:55:52;100823.94;;;19.09;58.47
60897;BME280;46749;32.932;-117.130;2022-07-18T09:58:24;100820.47;;;19.13;58.10
60897;BME280;46749;32.932;-117.130;2022-07-18T10:00:51;100817.81;;;19.14;58.25
60897;BME280;46749;32.932;-117.130;2022-07-18T10:03:19;100823.97;;;19.20;58.29
60897;BME280;46749;32.932;-117.130;2022-07-18T10:05:47;100823.13;;;19.18;58.23
60897;BME280;46749;32.932;-117.130;2022-07-18T10:08:17;100820.44;;;19.14;58.09
60897;BME280;46749;32.932;-117.130;2022-07-18T10:10:44;100827.47;;;19.12;57.98
60897;BME280;46749;32.932;-117.130;2022-07-18T10:13:14;100823.94;;;19.10;57.93
60897;BME280;46749;32.932;-117.130;2022-07-18T10:15:43;100828.34;;;19.08;58.47
60897;BME280;46749;32.932;-117.130;2022-07-18T10:18:13;100833.63;;;19.11;58.27
60897;BME280;46749;32.932;-117.130;2022-07-18T10:23:43;100838.00;;;19.11;57.95
60897;BME280;46749;32.932;-117.130;2022-07-18T10:31:27;100828.34;;;19.14;57.76
60897;BME280;46749;32.932;-117.130;2022-07-18T10:34:09;100831.00;;;19.11;57.89
60897;BME280;46749;32.932;-117.130;2022-07-18T10:39:19;100848.53;;;19.05;57.82
60897;BME280;46749;32.932;-117.130;2022-07-18T10:47:05;100851.13;;;19.02;58.22
60897;BME280;46749;32.932;-117.130;2022-07-18T11:00:28;100848.50;;;19.03;57.72
60897;BME280;46749;32.932;-117.130;2022-07-18T11:16:04;100844.97;;;18.92;58.42
60897;BME280;46749;32.932;-117.130;2022-07-18T11:21:22;100852.84;;;18.94;57.97
60897;BME280;46749;32.932;-117.130;2022-07-18T11:23:51;100851.94;;;18.92;58.21
60897;BME280;46749;32.932;-117.130;2022-07-18T11:26:22;100867.75;;;18.90;58.00
60897;BME280;46749;32.932;-117.130;2022-07-18T11:28:56;100864.22;;;18.90;58.21
60897;BME280;46749;32.932;-117.130;2022-07-18T11:31:23;100861.59;;;18.88;57.98
60897;BME280;46749;32.932;-117.130;2022-07-18T11:33:49;100867.75;;;18.87;58.35
60897;BME280;46749;32.932;-117.130;2022-07-18T11:36:18;100863.34;;;18.86;58.37
60897;BME280;46749;32.932;-117.130;2022-07-18T11:38:52;100867.72;;;18.85;58.30
60897;BME280;46749;32.932;-117.130;2022-07-18T11:41:20;100871.22;;;18.84;58.09
60897;BME280;46749;32.932;-117.130;2022-07-18T11:43:48;100865.97;;;18.83;58.02
60897;BME280;46749;32.932;-117.130;2022-07-18T11:46:18;100865.97;;;18.83;58.24
60897;BME280;46749;32.932;-117.130;2022-07-18T11:49:05;100863.34;;;18.86;58.29
60897;BME280;46749;32.932;-117.130;2022-07-18T11:51:43;100872.13;;;18.86;57.86
60897;BME280;46749;32.932;-117.130;2022-07-18T11:54:11;100866.00;;;18.86;58.34
60897;BME280;46749;32.932;-117.130;2022-07-18T11:56:48;100857.19;;;18.84;58.27
60897;BME280;46749;32.932;-117.130;2022-07-18T11:59:15;100854.59;;;18.89;58.36
60897;BME280;46749;32.932;-117.130;2022-07-18T12:01:42;100860.72;;;18.89;57.85
60897;BME280;46749;32.932;-117.130;2022-07-18T12:04:22;100859.84;;;18.87;57.98
60897;BME280;46749;32.932;-117.130;2022-07-18T12:09:46;100865.06;;;18.84;58.19
60897;BME280;46749;32.932;-117.130;2022-07-18T12:12:14;100868.59;;;18.81;58.03
60897;BME280;46749;32.932;-117.130;2022-07-18T12:14:41;100854.56;;;18.79;57.94
60897;BME280;46749;32.932;-117.130;2022-07-18T12:17:07;100851.94;;;18.79;58.10
60897;BME280;46749;32.932;-117.130;2022-07-18T12:19:38;100854.56;;;18.81;57.88
60897;BME280;46749;32.932;-117.130;2022-07-18T12:22:07;100864.19;;;18.80;57.89
60897;BME280;46749;32.932;-117.130;2022-07-18T12:24:36;100861.53;;;18.79;58.32
60897;BME280;46749;32.932;-117.130;2022-07-18T12:27:18;100868.56;;;18.77;58.19
60897;BME280;46749;32.932;-117.130;2022-07-18T12:32:49;100879.09;;;18.75;58.23
60897;BME280;46749;32.932;-117.130;2022-07-18T12:35:22;100868.56;;;18.74;57.98
60897;BME280;46749;32.932;-117.130;2022-07-18T12:37:56;100877.28;;;18.71;58.06
60897;BME280;46749;32.932;-117.130;2022-07-18T12:40:24;100867.66;;;18.72;58.15
60897;BME280;46749;32.932;-117.130;2022-07-18T12:43:02;100883.44;;;18.70;58.18
60897;BME280;46749;32.932;-117.130;2022-07-18T12:45:29;100881.69;;;18.69;57.99
60897;BME280;46749;32.932;-117.130;2022-07-18T12:47:55;100884.34;;;18.74;58.30
60897;BME280;46749;32.932;-117.130;2022-07-18T12:50:22;100889.59;;;18.74;58.14
60897;BME280;46749;32.932;-117.130;2022-07-18T12:52:48;100889.59;;;18.74;57.99
60897;BME280;46749;32.932;-117.130;2022-07-18T12:55:14;100885.19;;;18.71;58.19
60897;BME280;46749;32.932;-117.130;2022-07-18T12:57:41;100889.56;;;18.71;58.31
60897;BME280;46749;32.932;-117.130;2022-07-18T13:00:07;100896.63;;;18.75;58.28
60897;BME280;46749;32.932;-117.130;2022-07-18T13:02:34;100897.53;;;18.83;57.97
60897;BME280;46749;32.932;-117.130;2022-07-18T13:05:00;100902.00;;;18.93;57.61
60897;BME280;46749;32.932;-117.130;2022-07-18T13:07:26;100897.59;;;18.92;57.81
60897;BME280;46749;32.932;-117.130;2022-07-18T13:09:52;100927.41;;;18.88;57.46
60897;BME280;46749;32.932;-117.130;2022-07-18T13:12:18;100923.84;;;18.84;57.69